Sainte-Croix, Canada
Current Conditions -  °F | °C
As of 10:00 PM on Friday 28 Nov 2014 (Local Time) from CYQB Reporting Station
Clear Clear  
Wind Chill:   Ceiling: Unl
Heat Index: 16°   Visibility: 15mi
Dew Point:   Wind: 5mph
Humidity: 68%   Direction: 300°WNW
Pressure: 30.13"   Gusts: NA
Location:  46.62°N, 71.73°W
Report Text: CYQB 290300Z 30004KT 15SM SKC M09/M14 A3013 RMK SLP207
Loading
Personal Weather Stations






























Interactive Weather Map New forecast layout! Learn more

10-Day Weather Forecast

Advertisements
Track Severe Weather on mobile